Terminal Aerodrome Forecast
Issued by NWS

Home | Current Version | Previous Version | Text Only | Print | Product List | Glossary On
Versions: 1 2 3 4 5 6 7 8 9 10 11 12 13 14 15 16 17 18 19 20 21 22 23 24 25 26 27 28 29 30 31 32 33 34 35 36 37 38 39 40 41 42
580
FTUS45 KGJT 232340
TAFEGE
TAF
KEGE 232340Z 2400/2424 27008KT P6SM VCSH SCT050 OVC070
      TEMPO 2400/2404 4SM -SN BKN035 OVC050
     FM240500 26005KT P6SM VCSH SCT030 OVC040
     FM241100 25006KT P6SM SCT030 OVC045
     FM241800 24017G27KT P6SM FEW040 SCT070
      AMD LTD TO CLD VIS AND WIND 2406/2414=

USA.gov is the U.S. government's official web portal to all federal, state and local government web resources and services.